Weather at New Castle Airport

Public forecast

Using degrees Fahrenheit for public forecast. Weather courtesy of forecast.io.

Current aviation weather report (METAR) for New Castle Airport

Retrieved 2020/11/30 00:51 UTC (33 minutes ago):

KILG 300051Z AUTO 14005KT 10SM CLR 07/03 A3012 RMK AO2 SLP200 T00720033

Aviation forecast (TAF) for New Castle Airport

Retrieved 2020-11-30 00:27 UTC (57 minutes ago):

TAF KILG 292324Z 3000/3024 VRB03KT P6SM BKN250 TEMPO 3008/3011 BKN020 OVC250 FM301100 09009KT 5SM -RA OVC015 WS020/13040KT FM301400 13015G28KT 2SM RA BR OVC008 WS020/17045KT FM301800 16015G31KT 3SM SHRA OVC015 FM302100 23013G25KT P6SM BKN040